Time;durP1;ratioP1;P1;durP2;ratioP2;P2;SDS_P1;SDS_P2;PMS_P1;PMS_P2;Temp;Humidity;BMP_temperature;BMP_pressure;BME280_temperature;BME280_humidity;BME280_pressure;Samples;Min_cycle;Max_cycle;Signal;HPM_P1;HPM_P2
2022/06/17 00:03:07;;;;;;;;;;;;;;;;;;8417567;27;27429;-72
2022/06/17 00:07:07;;;;;;;;;;;;;;;;;;8415265;27;27451;-72
2022/06/17 00:11:07;;;;;;;;;;;;;;;;;;8419360;27;27444;-72
2022/06/17 00:15:13;;;;;;;;;;;;;;;;;;8415804;27;27235;-72
2022/06/17 00:19:13;;;;;;;;;;;;;;;;;;8427580;27;27359;-72
2022/06/17 00:23:13;;;;;;;;;;;;;;;;;;8417014;27;27224;-73
2022/06/17 00:27:13;;;;;;;;;;;;;;;;;;8420258;27;27941;-73
2022/06/17 00:31:14;;;;;;;;;;;;;;;;;;8416578;27;27148;-73
2022/06/17 00:35:14;;;;;;;;;;;;;;;;;;8425756;27;28745;-72
2022/06/17 00:39:14;;;;;;;;;;;;;;;;;;8417485;27;27861;-73
2022/06/17 00:43:14;;;;;;;;;;;;;;;;;;8418802;27;28174;-72
2022/06/17 00:47:14;;;;;;;;;;;;;;;;;;8418749;27;27444;-73
2022/06/17 00:51:15;;;;;;;;;;;;;;;;;;8422319;27;28308;-73
2022/06/17 00:55:15;;;;;;;;;;;;;;;;;;8418765;27;29362;-72
2022/06/17 00:59:15;;;;;;;;;;;;;;;;;;8420065;27;27356;-73
2022/06/17 01:03:15;;;;;;;;;;;;;;;;;;8417818;27;29136;-72
2022/06/17 01:07:15;;;;;;;;;;;;;;;;;;8416291;27;27259;-72
2022/06/17 01:11:16;;;;;;;;;;;;;;;;;;8419427;27;27789;-73
2022/06/17 01:15:16;;;;;;;;;;;;;;;;;;8415815;27;27243;-72
2022/06/17 01:19:16;;;;;;;;;;;;;;;;;;8422752;27;28215;-73
2022/06/17 01:23:16;;;;;;;;;;;;;;;;;;8410539;27;27792;-72
2022/06/17 01:27:16;;;;;;;;;;;;;;;;;;8415216;27;27108;-72
2022/06/17 01:31:17;;;;;;;;;;;;;;;;;;8410017;27;27414;-73
2022/06/17 01:35:17;;;;;;;;;;;;;;;;;;8416574;27;28441;-72
2022/06/17 01:39:17;;;;;;;;;;;;;;;;;;8420648;27;27395;-73
2022/06/17 01:43:17;;;;;;;;;;;;;;;;;;8430370;27;28456;-72
2022/06/17 01:47:17;;;;;;;;;;;;;;;;;;8416004;27;27358;-72
2022/06/17 01:51:17;;;;;;;;;;;;;;;;;;8416103;27;29423;-72
2022/06/17 01:55:18;;;;;;;;;;;;;;;;;;8420634;27;27426;-73
2022/06/17 01:59:18;;;;;;;;;;;;;;;;;;8419019;27;28031;-72
2022/06/17 02:03:18;;;;;;;;;;;;;;;;;;8424977;27;28602;-72
2022/06/17 02:07:18;;;;;;;;;;;;;;;;;;8415035;27;27530;-73
2022/06/17 02:11:18;;;;;;;;;;;;;;;;;;8413512;27;27343;-73
2022/06/17 02:15:18;;;;;;;;;;;;;;;;;;8421775;27;28290;-72
2022/06/17 02:19:18;;;;;;;;;;;;;;;;;;8418411;27;28274;-72
2022/06/17 02:23:19;;;;;;;;;;;;;;;;;;8420978;27;27371;-72
2022/06/17 02:27:19;;;;;;;;;;;;;;;;;;8427833;27;28481;-72
2022/06/17 02:31:21;;;;;;;;;;;;;;;;;;8426367;27;27336;-72
2022/06/17 02:35:21;;;;;;;;;;;;;;;;;;8425312;27;27193;-72
2022/06/17 02:39:21;;;;;;;;;;;;;;;;;;8423294;27;27311;-72
2022/06/17 02:43:21;;;;;;;;;;;;;;;;;;8422701;27;27445;-72
2022/06/17 02:47:22;;;;;;;;;;;;;;;;;;8422667;27;27111;-73
2022/06/17 02:51:22;;;;;;;;;;;;;;;;;;8421089;27;27203;-72
2022/06/17 02:55:22;;;;;;;;;;;;;;;;;;8420190;27;27180;-72
2022/06/17 02:59:22;;;;;;;;;;;;;;;;;;8424831;27;28062;-72
2022/06/17 03:03:22;;;;;;;;;;;;;;;;;;8421531;27;27231;-72
2022/06/17 03:07:22;;;;;;;;;;;;;;;;;;8422275;27;29125;-72
2022/06/17 03:11:22;;;;;;;;;;;;;;;;;;8418692;27;27927;-72
2022/06/17 03:15:23;;;;;;;;;;;;;;;;;;8418270;27;27204;-72
2022/06/17 03:19:23;;;;;;;;;;;;;;;;;;8421462;27;27321;-72
2022/06/17 03:23:23;;;;;;;;;;;;;;;;;;8418642;27;29471;-72
2022/06/17 03:27:23;;;;;;;;;;;;;;;;;;8413548;27;27654;-72
2022/06/17 03:31:24;;;;;;;;;;;;;;;;;;8420004;27;27616;-72
2022/06/17 03:35:31;;;;;;;;;;;;;;;;;;8424536;27;27419;-72
2022/06/17 03:39:31;;;;;;;;;;;;;;;;;;8422379;27;28531;-73
2022/06/17 03:43:33;;;;;;;;;;;;;;;;;;8413397;27;27238;-73
2022/06/17 03:47:33;;;;;;;;;;;;;;;;;;8421190;27;27214;-72
2022/06/17 03:51:36;;;;;;;;;;;;;;;;;;8418442;27;28280;-72
2022/06/17 03:55:36;;;;;;;;;;;;;;;;;;8422133;27;28509;-72
2022/06/17 03:59:36;;;;;;;;;;;;;;;;;;8419838;27;29264;-72
2022/06/17 04:03:37;;;;;;;;;;;;;;;;;;8419815;27;29477;-72
2022/06/17 04:07:37;;;;;;;;;;;;;;;;;;8422567;27;27606;-72
2022/06/17 04:11:37;;;;;;;;;;;;;;;;;;8416213;27;27460;-72
2022/06/17 04:15:37;;;;;;;;;;;;;;;;;;8419711;27;27546;-72
2022/06/17 04:19:37;;;;;;;;;;;;;;;;;;8417906;27;27349;-73
2022/06/17 04:23:37;;;;;;;;;;;;;;;;;;8424763;27;27616;-72
2022/06/17 04:27:56;;;;;;;;;;;;;;;;;;8416922;27;27502;-72
2022/06/17 04:31:56;;;;;;;;;;;;;;;;;;8425323;27;28059;-72
2022/06/17 04:35:56;;;;;;;;;;;;;;;;;;8417587;27;27673;-72
2022/06/17 04:39:57;;;;;;;;;;;;;;;;;;8411639;27;27117;-72
2022/06/17 04:43:57;;;;;;;;;;;;;;;;;;8420558;27;27551;-73
2022/06/17 04:48:00;;;;;;;;;;;;;;;;;;8414462;27;27629;-72
2022/06/17 04:52:00;;;;;;;;;;;;;;;;;;8424825;27;29331;-73
2022/06/17 04:56:01;;;;;;;;;;;;;;;;;;8416121;27;27393;-73
2022/06/17 05:00:01;;;;;;;;;;;;;;;;;;8422993;27;28205;-73
2022/06/17 05:04:01;;;;;;;;;;;;;;;;;;8419883;27;28277;-73
2022/06/17 05:08:01;;;;;;;;;;;;;;;;;;8423668;27;28260;-72
2022/06/17 05:12:01;;;;;;;;;;;;;;;;;;8410598;27;27542;-72
2022/06/17 05:16:01;;;;;;;;;;;;;;;;;;8415929;27;27351;-72
2022/06/17 05:20:02;;;;;;;;;;;;;;;;;;8419162;27;29496;-73
2022/06/17 05:24:02;;;;;;;;;;;;;;;;;;8413277;27;27330;-73
2022/06/17 05:28:02;;;;;;;;;;;;;;;;;;8415395;27;27261;-72
2022/06/17 05:32:03;;;;;;;;;;;;;;;;;;8422330;27;28228;-72
2022/06/17 05:36:03;;;;;;;;;;;;;;;;;;8410750;27;27516;-72
2022/06/17 05:40:03;;;;;;;;;;;;;;;;;;8410526;27;28841;-72
2022/06/17 05:44:04;;;;;;;;;;;;;;;;;;8413990;27;27132;-74
2022/06/17 05:48:04;;;;;;;;;;;;;;;;;;8409060;27;27066;-73
2022/06/17 05:52:04;;;;;;;;;;;;;;;;;;8411236;27;27147;-72
2022/06/17 05:56:04;;;;;;;;;;;;;;;;;;8422592;27;27265;-73
2022/06/17 06:00:05;;;;;;;;;;;;;;;;;;8421467;27;27297;-72
2022/06/17 06:04:05;;;;;;;;;;;;;;;;;;8418935;27;28658;-73
2022/06/17 06:08:05;;;;;;;;;;;;;;;;;;8418590;27;27456;-72
2022/06/17 06:12:05;;;;;;;;;;;;;;;;;;8413776;27;27424;-73
2022/06/17 06:16:08;;;;;;;;;;;;;;;;;;8417029;27;27326;-75
2022/06/17 06:20:09;;;;;;;;;;;;;;;;;;8420162;27;27631;-74
2022/06/17 06:24:09;;;;;;;;;;;;;;;;;;8420542;27;28346;-74
2022/06/17 06:28:11;;;;;;;;;;;;;;;;;;8416564;27;48641;-73
2022/06/17 06:32:11;;;;;;;;;;;;;;;;;;8417071;27;27275;-72
2022/06/17 06:36:11;;;;;;;;;;;;;;;;;;8422843;27;27323;-73
2022/06/17 06:40:11;;;;;;;;;;;;;;;;;;8415591;27;27295;-72
2022/06/17 06:44:14;;;;;;;;;;;;;;;;;;8422624;27;27493;-72
2022/06/17 06:48:16;;;;;;;;;;;;;;;;;;8416431;27;27539;-72
2022/06/17 06:52:16;;;;;;;;;;;;;;;;;;8414023;27;29220;-72
2022/06/17 06:56:17;;;;;;;;;;;;;;;;;;8411804;27;27577;-72
2022/06/17 07:00:17;;;;;;;;;;;;;;;;;;8420080;27;27353;-73
2022/06/17 07:04:17;;;;;;;;;;;;;;;;;;8414324;27;27212;-73
2022/06/17 07:08:18;;;;;;;;;;;;;;;;;;8416188;27;27251;-73
2022/06/17 07:12:18;;;;;;;;;;;;;;;;;;8413257;27;27408;-71
2022/06/17 07:16:18;;;;;;;;;;;;;;;;;;8412443;27;27932;-71
2022/06/17 07:20:19;;;;;;;;;;;;;;;;;;8418171;27;28313;-72
2022/06/17 07:24:19;;;;;;;;;;;;;;;;;;8416844;27;28105;-72
2022/06/17 07:28:19;;;;;;;;;;;;;;;;;;8415942;27;28440;-73
2022/06/17 07:32:19;;;;;;;;;;;;;;;;;;8417583;27;27192;-72
2022/06/17 07:40:38;;;;;;;;;;;;;;;;;;8414054;27;27435;-72
2022/06/17 07:44:38;;;;;;;;;;;;;;;;;;8415875;27;27676;-73
2022/06/17 07:48:40;;;;;;;;;;;;;;;;;;8414444;27;27420;-73
2022/06/17 07:52:40;;;;;;;;;;;;;;;;;;8415290;27;28355;-73
2022/06/17 07:56:40;;;;;;;;;;;;;;;;;;8417668;27;27204;-74
2022/06/17 08:00:41;;;;;;;;;;;;;;;;;;8421161;27;29307;-75
2022/06/17 08:04:41;;;;;;;;;;;;;;;;;;8417661;27;28907;-72
2022/06/17 08:08:42;;;;;;;;;;;;;;;;;;8417448;27;28527;-74
2022/06/17 08:12:42;;;;;;;;;;;;;;;;;;8412080;27;27259;-73
2022/06/17 08:16:42;;;;;;;;;;;;;;;;;;8412469;27;27786;-73
2022/06/17 08:20:42;;;;;;;;;;;;;;;;;;8414253;27;27755;-74
2022/06/17 08:24:42;;;;;;;;;;;;;;;;;;8411656;27;27454;-72
2022/06/17 08:28:42;;;;;;;;;;;;;;;;;;8418408;27;27851;-72
2022/06/17 08:32:46;;;;;;;;;;;;;;;;;;8412827;27;27848;-72
2022/06/17 08:36:46;;;;;;;;;;;;;;;;;;8416241;27;27339;-72
2022/06/17 08:40:46;;;;;;;;;;;;;;;;;;8409145;27;27486;-72
2022/06/17 08:44:46;;;;;;;;;;;;;;;;;;8404999;27;27525;-73
2022/06/17 08:48:46;;;;;;;;;;;;;;;;;;8407381;27;27274;-72
2022/06/17 08:52:47;;;;;;;;;;;;;;;;;;8410278;27;27496;-73
2022/06/17 08:56:47;;;;;;;;;;;;;;;;;;8405800;27;28036;-72
2022/06/17 09:00:47;;;;;;;;;;;;;;;;;;8401523;27;27749;-72
2022/06/17 09:04:47;;;;;;;;;;;;;;;;;;8408562;27;27179;-72
2022/06/17 09:08:47;;;;;;;;;;;;;;;;;;8405235;27;27694;-72
2022/06/17 09:12:47;;;;;;;;;;;;;;;;;;8407208;27;27259;-71
2022/06/17 09:16:47;;;;;;;;;;;;;;;;;;8407345;27;28264;-73
2022/06/17 09:20:48;;;;;;;;;;;;;;;;;;8396804;27;27889;-72
2022/06/17 09:24:48;;;;;;;;;;;;;;;;;;8400761;27;28690;-72
2022/06/17 09:28:48;;;;;;;;;;;;;;;;;;8409356;27;29215;-72
2022/06/17 09:32:48;;;;;;;;;;;;;;;;;;8410112;27;27647;-73
2022/06/17 09:36:48;;;;;;;;;;;;;;;;;;8406562;27;27288;-72
2022/06/17 09:40:48;;;;;;;;;;;;;;;;;;8406339;27;27829;-72
2022/06/17 09:44:48;;;;;;;;;;;;;;;;;;8409452;27;28008;-72
2022/06/17 09:48:49;;;;;;;;;;;;;;;;;;8411077;27;28179;-73
2022/06/17 09:52:50;;;;;;;;;;;;;;;;;;8407740;27;28296;-72
2022/06/17 09:56:51;;;;;;;;;;;;;;;;;;8408385;27;27434;-73
2022/06/17 10:00:51;;;;;;;;;;;;;;;;;;8410640;27;27245;-72
2022/06/17 10:04:51;;;;;;;;;;;;;;;;;;8407867;27;28300;-73
2022/06/17 10:08:52;;;;;;;;;;;;;;;;;;8414459;27;28494;-72
2022/06/17 10:12:52;;;;;;;;;;;;;;;;;;8415154;27;27332;-73
2022/06/17 10:21:13;;;;;;;;;;;;;;;;;;8407431;27;27829;-73
2022/06/17 10:25:14;;;;;;;;;;;;;;;;;;8408761;27;27636;-73
2022/06/17 10:29:14;;;;;;;;;;;;;;;;;;8404992;27;28248;-72
2022/06/17 10:33:14;;;;;;;;;;;;;;;;;;8408364;27;29469;-71
2022/06/17 10:37:14;;;;;;;;;;;;;;;;;;8411163;27;27486;-73
2022/06/17 10:41:14;;;;;;;;;;;;;;;;;;8412364;27;28329;-73
2022/06/17 10:45:15;;;;;;;;;;;;;;;;;;8410446;27;28475;-73
2022/06/17 10:49:15;;;;;;;;;;;;;;;;;;8411093;27;27541;-72
2022/06/17 10:53:15;;;;;;;;;;;;;;;;;;8412205;27;28390;-71
2022/06/17 10:57:15;;;;;;;;;;;;;;;;;;8408062;27;27614;-71
2022/06/17 11:01:15;;;;;;;;;;;;;;;;;;8407498;27;27655;-71
2022/06/17 11:05:16;;;;;;;;;;;;;;;;;;8408945;27;29330;-75
2022/06/17 11:09:16;;;;;;;;;;;;;;;;;;8412174;27;27648;-74
2022/06/17 11:13:16;;;;;;;;;;;;;;;;;;8412363;27;28382;-73
2022/06/17 11:17:16;;;;;;;;;;;;;;;;;;8408431;27;27604;-73
2022/06/17 11:21:16;;;;;;;;;;;;;;;;;;8413499;27;27784;-72
2022/06/17 11:25:16;;;;;;;;;;;;;;;;;;8406969;27;27599;-73
2022/06/17 11:29:16;;;;;;;;;;;;;;;;;;8406741;27;27147;-72
2022/06/17 11:33:17;;;;;;;;;;;;;;;;;;8401556;27;27278;-72
2022/06/17 11:37:17;;;;;;;;;;;;;;;;;;8403572;27;28362;-72
2022/06/17 11:41:17;;;;;;;;;;;;;;;;;;8409167;27;27544;-72
2022/06/17 11:45:18;;;;;;;;;;;;;;;;;;8403523;27;27222;-71
2022/06/17 11:49:19;;;;;;;;;;;;;;;;;;8405021;27;27440;-72
2022/06/17 11:53:19;;;;;;;;;;;;;;;;;;8399772;27;28028;-72
2022/06/17 11:57:20;;;;;;;;;;;;;;;;;;8406175;27;27526;-73
2022/06/17 12:01:20;;;;;;;;;;;;;;;;;;8408669;27;27773;-72
2022/06/17 12:05:20;;;;;;;;;;;;;;;;;;8405405;27;27478;-72
2022/06/17 12:09:22;;;;;;;;;;;;;;;;;;8399262;27;27473;-72
2022/06/17 12:13:22;;;;;;;;;;;;;;;;;;8400650;27;27593;-72
2022/06/17 12:17:22;;;;;;;;;;;;;;;;;;8409019;27;27677;-72
2022/06/17 12:21:29;;;;;;;;;;;;;;;;;;8399478;27;27414;-72
2022/06/17 12:25:30;;;;;;;;;;;;;;;;;;8404045;27;27532;-72
2022/06/17 12:29:30;;;;;;;;;;;;;;;;;;8403272;27;28559;-72
2022/06/17 12:33:30;;;;;;;;;;;;;;;;;;8402926;27;27814;-72
2022/06/17 12:37:30;;;;;;;;;;;;;;;;;;8405589;27;27587;-72
2022/06/17 12:41:30;;;;;;;;;;;;;;;;;;8405144;27;28278;-72
2022/06/17 12:45:30;;;;;;;;;;;;;;;;;;8404504;27;27411;-72
2022/06/17 12:53:49;;;;;;;;;;;;;;;;;;8402231;27;27783;-73
2022/06/17 12:57:49;;;;;;;;;;;;;;;;;;8411762;27;28387;-73
2022/06/17 13:01:50;;;;;;;;;;;;;;;;;;8409393;27;28683;-72
2022/06/17 13:05:50;;;;;;;;;;;;;;;;;;8404170;27;27866;-73
2022/06/17 13:09:50;;;;;;;;;;;;;;;;;;8408015;27;28271;-72
2022/06/17 13:13:50;;;;;;;;;;;;;;;;;;8397654;27;27545;-73
2022/06/17 13:17:50;;;;;;;;;;;;;;;;;;8402483;27;27161;-73
2022/06/17 13:21:50;;;;;;;;;;;;;;;;;;8404824;27;27523;-73
2022/06/17 13:25:53;;;;;;;;;;;;;;;;;;8406402;27;28383;-73
2022/06/17 13:29:53;;;;;;;;;;;;;;;;;;8394025;27;28752;-73
2022/06/17 13:33:53;;;;;;;;;;;;;;;;;;8395533;27;28428;-72
2022/06/17 13:37:54;;;;;;;;;;;;;;;;;;8403984;27;27592;-72
2022/06/17 13:41:54;;;;;;;;;;;;;;;;;;8403674;27;28345;-73
2022/06/17 13:45:54;;;;;;;;;;;;;;;;;;8402056;27;28313;-74
2022/06/17 13:49:54;;;;;;;;;;;;;;;;;;8404781;27;28831;-73
2022/06/17 13:53:54;;;;;;;;;;;;;;;;;;8402542;27;27517;-73
2022/06/17 13:57:57;;;;;;;;;;;;;;;;;;8402732;27;29800;-73
2022/06/17 14:01:57;;;;;;;;;;;;;;;;;;8410877;27;27697;-73
2022/06/17 14:05:58;;;;;;;;;;;;;;;;;;8407495;27;27601;-73
2022/06/17 14:09:58;;;;;;;;;;;;;;;;;;8404629;27;27584;-73
2022/06/17 14:13:59;;;;;;;;;;;;;;;;;;8407256;27;28163;-72
2022/06/17 14:17:59;;;;;;;;;;;;;;;;;;8412483;27;28384;-73
2022/06/17 14:21:59;;;;;;;;;;;;;;;;;;8407976;27;27305;-73
2022/06/17 14:26:01;;;;;;;;;;;;;;;;;;8408555;27;28438;-73
2022/06/17 14:30:01;;;;;;;;;;;;;;;;;;8411498;27;27162;-72
2022/06/17 14:34:01;;;;;;;;;;;;;;;;;;8412032;27;27830;-73
2022/06/17 14:38:02;;;;;;;;;;;;;;;;;;8409645;27;27561;-72
2022/06/17 14:42:02;;;;;;;;;;;;;;;;;;8416794;27;28402;-72
2022/06/17 14:46:02;;;;;;;;;;;;;;;;;;8409865;27;27229;-72
2022/06/17 14:50:02;;;;;;;;;;;;;;;;;;8411271;27;27803;-72
2022/06/17 14:54:02;;;;;;;;;;;;;;;;;;8415953;27;29548;-73
2022/06/17 14:58:03;;;;;;;;;;;;;;;;;;8410029;27;27502;-73
2022/06/17 15:02:03;;;;;;;;;;;;;;;;;;8412714;27;28061;-72
2022/06/17 15:06:03;;;;;;;;;;;;;;;;;;8406212;27;27797;-73
2022/06/17 15:10:03;;;;;;;;;;;;;;;;;;8409944;27;28134;-72
2022/06/17 15:14:09;;;;;;;;;;;;;;;;;;8403476;27;27210;-72
2022/06/17 15:18:09;;;;;;;;;;;;;;;;;;8408921;27;27645;-72
2022/06/17 15:22:10;;;;;;;;;;;;;;;;;;8408027;27;27607;-73
2022/06/17 15:26:10;;;;;;;;;;;;;;;;;;8407075;27;27929;-72
2022/06/17 15:30:10;;;;;;;;;;;;;;;;;;8413563;27;28458;-72
2022/06/17 15:34:10;;;;;;;;;;;;;;;;;;8409334;27;27152;-73
2022/06/17 15:38:10;;;;;;;;;;;;;;;;;;8410901;27;27823;-73
2022/06/17 15:42:10;;;;;;;;;;;;;;;;;;8408392;27;27995;-73
2022/06/17 15:46:10;;;;;;;;;;;;;;;;;;8408881;27;28495;-73
2022/06/17 15:50:10;;;;;;;;;;;;;;;;;;8411730;27;28268;-73
2022/06/17 15:54:11;;;;;;;;;;;;;;;;;;8409360;27;27471;-72
2022/06/17 15:58:11;;;;;;;;;;;;;;;;;;8408249;27;28171;-73
2022/06/17 16:02:11;;;;;;;;;;;;;;;;;;8407059;27;27967;-73
2022/06/17 16:06:11;;;;;;;;;;;;;;;;;;8408205;27;28170;-73
2022/06/17 16:10:11;;;;;;;;;;;;;;;;;;8404959;27;27841;-73
2022/06/17 16:14:14;;;;;;;;;;;;;;;;;;8404928;27;27454;-73
2022/06/17 16:18:14;;;;;;;;;;;;;;;;;;8409356;27;27558;-72
2022/06/17 16:22:14;;;;;;;;;;;;;;;;;;8409082;27;29344;-72
2022/06/17 16:26:14;;;;;;;;;;;;;;;;;;8411586;27;27893;-72
2022/06/17 16:30:14;;;;;;;;;;;;;;;;;;8410128;27;28512;-72
2022/06/17 16:34:14;;;;;;;;;;;;;;;;;;8407560;27;27441;-72
2022/06/17 16:38:15;;;;;;;;;;;;;;;;;;8408640;27;27770;-72
2022/06/17 16:46:33;;;;;;;;;;;;;;;;;;8405494;27;28371;-72
2022/06/17 16:50:34;;;;;;;;;;;;;;;;;;8403927;27;27518;-72
2022/06/17 16:54:35;;;;;;;;;;;;;;;;;;8403858;27;28493;-72
2022/06/17 16:58:36;;;;;;;;;;;;;;;;;;8401310;27;27470;-73
2022/06/17 17:02:36;;;;;;;;;;;;;;;;;;8400253;27;27377;-73
2022/06/17 17:06:36;;;;;;;;;;;;;;;;;;8406741;27;27582;-72
2022/06/17 17:10:36;;;;;;;;;;;;;;;;;;8405464;27;27593;-72
2022/06/17 17:14:39;;;;;;;;;;;;;;;;;;8398941;27;27407;-72
2022/06/17 17:18:41;;;;;;;;;;;;;;;;;;8406403;27;28574;-72
2022/06/17 17:22:42;;;;;;;;;;;;;;;;;;8402846;27;28375;-72
2022/06/17 17:26:42;;;;;;;;;;;;;;;;;;8406261;27;27366;-72
2022/06/17 17:30:42;;;;;;;;;;;;;;;;;;8402416;27;27620;-74
2022/06/17 17:34:45;;;;;;;;;;;;;;;;;;8401131;27;27401;-71
2022/06/17 17:38:45;;;;;;;;;;;;;;;;;;8401870;27;28039;-71
2022/06/17 17:42:46;;;;;;;;;;;;;;;;;;8404993;27;28252;-71
2022/06/17 17:46:46;;;;;;;;;;;;;;;;;;8406919;27;27419;-71
2022/06/17 17:50:47;;;;;;;;;;;;;;;;;;8413794;27;27477;-72
2022/06/17 17:54:47;;;;;;;;;;;;;;;;;;8408928;27;27924;-73
2022/06/17 17:58:48;;;;;;;;;;;;;;;;;;8412648;27;27501;-73
2022/06/17 18:02:48;;;;;;;;;;;;;;;;;;8409935;27;28693;-72
2022/06/17 18:06:48;;;;;;;;;;;;;;;;;;8407797;27;28013;-73
2022/06/17 18:10:53;;;;;;;;;;;;;;;;;;8411427;27;27573;-73
2022/06/17 18:14:53;;;;;;;;;;;;;;;;;;8406668;27;28233;-74
2022/06/17 18:18:53;;;;;;;;;;;;;;;;;;8407940;27;28041;-73
2022/06/17 18:22:53;;;;;;;;;;;;;;;;;;8410462;27;27890;-74
2022/06/17 18:26:53;;;;;;;;;;;;;;;;;;8410779;27;27655;-75
2022/06/17 18:30:55;;;;;;;;;;;;;;;;;;8414704;27;27200;-74
2022/06/17 18:34:55;;;;;;;;;;;;;;;;;;8412545;27;27574;-74
2022/06/17 18:38:56;;;;;;;;;;;;;;;;;;8410004;27;27573;-75
2022/06/17 18:42:56;;;;;;;;;;;;;;;;;;8410542;27;27306;-74
2022/06/17 18:46:56;;;;;;;;;;;;;;;;;;8409488;27;28020;-73
2022/06/17 18:50:57;;;;;;;;;;;;;;;;;;8408463;27;27243;-74
2022/06/17 18:55:00;;;;;;;;;;;;;;;;;;8414745;27;29341;-74
2022/06/17 18:59:01;;;;;;;;;;;;;;;;;;8412025;27;27294;-73
2022/06/17 19:03:01;;;;;;;;;;;;;;;;;;8410991;27;27395;-73
2022/06/17 19:07:01;;;;;;;;;;;;;;;;;;8409261;27;27401;-74
2022/06/17 19:19:39;;;;;;;;;;;;;;;;;;8406406;27;27863;-74
2022/06/17 19:23:39;;;;;;;;;;;;;;;;;;8406222;27;28034;-73
2022/06/17 19:27:40;;;;;;;;;;;;;;;;;;8409977;27;27601;-73
2022/06/17 19:31:40;;;;;;;;;;;;;;;;;;8410734;27;29249;-73
2022/06/17 19:35:40;;;;;;;;;;;;;;;;;;8406760;27;28452;-73
2022/06/17 19:39:40;;;;;;;;;;;;;;;;;;8412244;27;27389;-72
2022/06/17 19:43:41;;;;;;;;;;;;;;;;;;8404045;27;28240;-72
2022/06/17 19:47:41;;;;;;;;;;;;;;;;;;8409262;27;27599;-72
2022/06/17 19:51:42;;;;;;;;;;;;;;;;;;8411866;27;27862;-71
2022/06/17 19:55:42;;;;;;;;;;;;;;;;;;8404932;27;27455;-72
2022/06/17 19:59:44;;;;;;;;;;;;;;;;;;8407804;27;28465;-72
2022/06/17 20:03:44;;;;;;;;;;;;;;;;;;8404520;27;28417;-72
2022/06/17 20:07:44;;;;;;;;;;;;;;;;;;8403007;27;27758;-73
2022/06/17 20:11:44;;;;;;;;;;;;;;;;;;8406797;27;27613;-73
2022/06/17 20:15:44;;;;;;;;;;;;;;;;;;8410088;27;27399;-73
2022/06/17 20:19:45;;;;;;;;;;;;;;;;;;8408423;27;28379;-72
2022/06/17 20:23:45;;;;;;;;;;;;;;;;;;8403282;27;27665;-72
2022/06/17 20:27:45;;;;;;;;;;;;;;;;;;8411479;27;28868;-73
2022/06/17 20:31:45;;;;;;;;;;;;;;;;;;8416275;27;27962;-73
2022/06/17 20:35:45;;;;;;;;;;;;;;;;;;8401576;27;28043;-73
2022/06/17 20:39:45;;;;;;;;;;;;;;;;;;8409728;27;27447;-72
2022/06/17 20:43:46;;;;;;;;;;;;;;;;;;8403369;27;27391;-73
2022/06/17 20:52:05;;;;;;;;;;;;;;;;;;8404333;27;27648;-73
2022/06/17 20:56:06;;;;;;;;;;;;;;;;;;8405057;27;28664;-73
2022/06/17 21:00:06;;;;;;;;;;;;;;;;;;8408428;27;27800;-72
2022/06/17 21:04:06;;;;;;;;;;;;;;;;;;8406640;27;28219;-72
2022/06/17 21:08:06;;;;;;;;;;;;;;;;;;8402395;27;28172;-73
2022/06/17 21:12:06;;;;;;;;;;;;;;;;;;8404429;27;27291;-72
2022/06/17 21:16:12;;;;;;;;;;;;;;;;;;8414840;27;27792;-73
2022/06/17 21:20:15;;;;;;;;;;;;;;;;;;8413089;27;28952;-72
2022/06/17 21:24:15;;;;;;;;;;;;;;;;;;8413882;27;27640;-72
2022/06/17 21:28:15;;;;;;;;;;;;;;;;;;8402945;27;28018;-72
2022/06/17 21:32:15;;;;;;;;;;;;;;;;;;8410605;27;27583;-72
2022/06/17 21:36:16;;;;;;;;;;;;;;;;;;8409316;27;27595;-72
2022/06/17 21:40:16;;;;;;;;;;;;;;;;;;8409950;27;28283;-72
2022/06/17 21:44:16;;;;;;;;;;;;;;;;;;8400354;27;27642;-72
2022/06/17 21:48:16;;;;;;;;;;;;;;;;;;8409350;27;28451;-72
2022/06/17 21:52:16;;;;;;;;;;;;;;;;;;8409470;27;27342;-72
2022/06/17 21:56:17;;;;;;;;;;;;;;;;;;8402058;27;28464;-72
2022/06/17 22:00:17;;;;;;;;;;;;;;;;;;8412498;27;27358;-72
2022/06/17 22:04:17;;;;;;;;;;;;;;;;;;8413389;27;28074;-72
2022/06/17 22:08:17;;;;;;;;;;;;;;;;;;8407447;27;27184;-72
2022/06/17 22:12:18;;;;;;;;;;;;;;;;;;8408397;27;28589;-73
2022/06/17 22:16:18;;;;;;;;;;;;;;;;;;8398378;27;27508;-72
2022/06/17 22:20:18;;;;;;;;;;;;;;;;;;8405808;27;27650;-72
2022/06/17 22:24:18;;;;;;;;;;;;;;;;;;8401074;27;27641;-73
2022/06/17 22:28:18;;;;;;;;;;;;;;;;;;8409034;27;27231;-72
2022/06/17 22:32:18;;;;;;;;;;;;;;;;;;8412091;27;27583;-72
2022/06/17 22:36:19;;;;;;;;;;;;;;;;;;8406757;27;27326;-72
2022/06/17 22:40:19;;;;;;;;;;;;;;;;;;8406486;27;27920;-72
2022/06/17 22:44:19;;;;;;;;;;;;;;;;;;8409955;27;28212;-72
2022/06/17 22:48:19;;;;;;;;;;;;;;;;;;8415390;27;28359;-72
2022/06/17 22:52:19;;;;;;;;;;;;;;;;;;8413948;27;27776;-72
2022/06/17 22:56:20;;;;;;;;;;;;;;;;;;8412761;27;28298;-72
2022/06/17 23:00:20;;;;;;;;;;;;;;;;;;8416433;27;28557;-72
2022/06/17 23:08:41;;;;;;;;;;;;;;;;;;8409925;27;27618;-72
2022/06/17 23:12:41;;;;;;;;;;;;;;;;;;8408824;27;27561;-72
2022/06/17 23:16:41;;;;;;;;;;;;;;;;;;8413392;27;28269;-73
2022/06/17 23:20:42;;;;;;;;;;;;;;;;;;8407473;27;28332;-73
2022/06/17 23:24:42;;;;;;;;;;;;;;;;;;8408613;27;27405;-73
2022/06/17 23:28:42;;;;;;;;;;;;;;;;;;8404997;27;27172;-73
2022/06/17 23:32:44;;;;;;;;;;;;;;;;;;8407989;27;28031;-73
2022/06/17 23:36:44;;;;;;;;;;;;;;;;;;8405543;27;28359;-73
2022/06/17 23:40:45;;;;;;;;;;;;;;;;;;8405151;27;28105;-73
2022/06/17 23:44:45;;;;;;;;;;;;;;;;;;8404597;27;28233;-72
2022/06/17 23:48:45;;;;;;;;;;;;;;;;;;8406126;27;27702;-74
2022/06/17 23:52:45;;;;;;;;;;;;;;;;;;8405283;27;27508;-74
2022/06/17 23:56:49;;;;;;;;;;;;;;;;;;8407222;27;29632;-74
